Time;durP1;ratioP1;P1;durP2;ratioP2;P2;SDS_P1;SDS_P2;PMS_P1;PMS_P2;Temp;Humidity;BMP_temperature;BMP_pressure;BME280_temperature;BME280_humidity;BME280_pressure;Samples;Min_cycle;Max_cycle;Signal;HPM_P1;HPM_P2
2022/10/17 11:27:53;;;;;;;4.72;1.17;;;20.30;98.40;;;;;;5127298;27;20110;-75
2022/10/17 11:30:19;;;;;;;2.88;0.95;;;19.50;95.60;;;;;;5094592;28;20028;-77
2022/10/17 11:32:50;;;;;;;3.97;0.82;;;19.20;96.20;;;;;;5091217;28;20484;-77
2022/10/17 11:35:22;;;;;;;1.48;0.77;;;19.10;96.20;;;;;;5093616;28;20572;-74
2022/10/17 11:38:20;;;;;;;3.25;0.90;;;19.00;97.20;;;;;;5093953;28;20055;-76
2022/10/17 11:40:50;;;;;;;1.92;1.15;;;19.10;98.00;;;;;;5094034;28;20146;-74
2022/10/17 11:43:31;;;;;;;2.60;0.80;;;19.10;97.00;;;;;;5093751;28;20058;-73
2022/10/17 11:46:22;;;;;;;1.00;0.70;;;19.10;96.60;;;;;;5093757;28;20028;-73
2022/10/17 11:49:11;;;;;;;1.63;0.60;;;19.20;97.40;;;;;;5093990;28;20024;-73
2022/10/17 11:51:45;;;;;;;1.40;0.63;;;19.30;97.30;;;;;;5093873;28;20027;-72
2022/10/17 11:54:21;;;;;;;2.92;0.70;;;19.20;96.00;;;;;;5092478;28;20027;-73
2022/10/17 11:57:20;;;;;;;1.52;0.63;;;19.20;96.40;;;;;;5092566;28;20058;-73
2022/10/17 11:59:58;;;;;;;1.20;0.50;;;19.20;96.60;;;;;;5087021;28;20391;-73
2022/10/17 12:02:47;;;;;;;1.80;0.65;;;19.30;96.30;;;;;;5092327;28;20100;-73
2022/10/17 12:05:33;;;;;;;2.90;0.70;;;19.30;96.30;;;;;;5093200;28;20077;-73
2022/10/17 12:08:02;;;;;;;2.60;0.63;;;19.30;96.00;;;;;;5093182;28;20070;-75
2022/10/17 12:10:38;;;;;;;2.25;0.68;;;19.30;95.40;;;;;;5093903;28;20056;-76
2022/10/17 12:13:32;;;;;;;2.03;0.60;;;19.30;96.00;;;;;;5092078;28;20035;-72
2022/10/17 12:16:16;;;;;;;1.92;0.68;;;19.20;96.20;;;;;;5093555;28;20027;-73
2022/10/17 12:18:41;;;;;;;2.55;0.60;;;19.30;96.40;;;;;;5093308;28;20028;-73
2022/10/17 12:21:07;;;;;;;2.35;0.63;;;19.30;95.70;;;;;;5093308;28;20028;-73
2022/10/17 12:23:35;;;;;;;2.42;0.63;;;19.30;95.40;;;;;;5093269;28;20029;-74
2022/10/17 12:26:03;;;;;;;1.95;0.60;;;19.30;95.40;;;;;;5093269;28;20044;-73
2022/10/17 12:28:43;;;;;;;2.13;0.82;;;19.30;95.70;;;;;;5093252;28;20510;-73
2022/10/17 12:31:14;;;;;;;3.15;0.55;;;19.30;96.00;;;;;;5091637;28;20028;-73
2022/10/17 12:33:58;;;;;;;2.47;0.60;;;19.30;95.60;;;;;;5093226;28;20024;-73
2022/10/17 12:36:27;;;;;;;1.33;0.45;;;19.30;96.20;;;;;;5092919;28;20024;-73
2022/10/17 12:39:02;;;;;;;2.78;0.60;;;19.30;95.80;;;;;;5081297;28;20024;-73
2022/10/17 12:41:37;;;;;;;2.17;0.52;;;19.40;95.80;;;;;;5064591;28;20060;-73
2022/10/17 12:44:11;;;;;;;1.10;0.55;;;19.40;95.70;;;;;;5079488;28;20511;-73
2022/10/17 12:46:43;;;;;;;1.80;0.50;;;19.40;95.30;;;;;;5079241;28;20036;-74
2022/10/17 12:49:35;;;;;;;2.67;0.65;;;19.40;94.90;;;;;;5077835;28;20070;-74
2022/10/17 12:52:24;;;;;;;2.67;0.70;;;19.50;96.00;;;;;;5047857;28;20041;-77
2022/10/17 12:54:49;;;;;;;2.67;0.57;;;19.50;95.80;;;;;;5079724;28;20063;-75
2022/10/17 12:57:20;;;;;;;2.60;0.52;;;19.60;94.70;;;;;;5078958;28;20028;-74
2022/10/17 12:59:47;;;;;;;2.22;0.57;;;19.60;94.90;;;;;;5077716;28;20029;-76
2022/10/17 13:02:20;;;;;;;1.50;0.50;;;19.70;94.40;;;;;;5076866;28;20090;-75
2022/10/17 13:04:47;;;;;;;;;;;19.70;94.30;;;;;;5077546;28;20540;-75
2022/10/17 13:07:19;;;;;;;2.75;0.50;;;19.70;95.60;;;;;;5068722;28;19909;-74
2022/10/17 13:09:45;;;;;;;2.30;0.50;;;19.70;94.30;;;;;;5077548;28;20031;-76
2022/10/17 13:12:24;;;;;;;2.78;0.50;;;19.70;93.90;;;;;;5065043;28;20035;-74
2022/10/17 13:14:51;;;;;;;2.33;0.60;;;19.70;94.60;;;;;;5071661;28;20031;-75
2022/10/17 13:17:24;;;;;;;2.83;0.73;;;19.70;93.60;;;;;;5075669;28;20051;-75
2022/10/17 13:19:50;;;;;;;1.30;0.50;;;19.60;93.80;;;;;;5075808;28;20480;-75
2022/10/17 13:22:22;;;;;;;2.60;0.50;;;19.60;93.60;;;;;;5086284;28;20025;-75
2022/10/17 13:24:50;;;;;;;1.20;0.47;;;19.50;94.00;;;;;;5082790;28;20021;-75
2022/10/17 13:27:33;;;;;;;1.05;0.45;;;19.50;93.80;;;;;;5078838;28;20075;-75
2022/10/17 13:30:00;;;;;;;1.75;0.50;;;19.50;94.40;;;;;;5075112;28;20008;-75
2022/10/17 13:32:35;;;;;;;2.28;0.55;;;19.40;93.60;;;;;;5071059;28;20050;-75
2022/10/17 13:35:04;;;;;;;2.35;0.60;;;19.40;94.00;;;;;;5062799;28;20439;-75
2022/10/17 13:37:30;;;;;;;1.23;0.50;;;19.40;93.80;;;;;;5077272;28;20028;-74
2022/10/17 13:39:56;;;;;;;2.42;0.60;;;19.40;93.80;;;;;;5078221;28;20035;-74
2022/10/17 13:42:35;;;;;;;2.17;0.63;;;19.40;93.80;;;;;;5076672;28;20028;-74
2022/10/17 13:45:01;;;;;;;1.60;0.52;;;19.30;94.30;;;;;;5077315;28;20035;-75
2022/10/17 13:47:35;;;;;;;2.47;0.60;;;19.30;93.90;;;;;;5073356;28;20032;-74
2022/10/17 13:50:01;;;;;;;1.95;0.70;;;19.30;94.40;;;;;;5072668;28;20559;-74
2022/10/17 13:52:29;;;;;;;3.10;0.70;;;19.40;94.40;;;;;;5074487;28;20021;-74
2022/10/17 13:55:04;;;;;;;2.33;0.55;;;19.40;94.30;;;;;;5076593;28;20107;-73
2022/10/17 13:57:30;;;;;;;3.53;0.85;;;19.40;94.30;;;;;;5077580;28;20028;-74
2022/10/17 14:00:11;;;;;;;3.10;0.60;;;19.40;95.00;;;;;;5077629;28;20060;-74
2022/10/17 14:02:36;;;;;;;4.60;0.85;;;19.40;94.60;;;;;;5076678;28;20056;-74
2022/10/17 14:05:11;;;;;;;1.50;0.65;;;19.40;94.50;;;;;;5075015;28;20036;-74
2022/10/17 14:07:48;;;;;;;3.60;0.90;;;19.40;94.70;;;;;;5077445;28;20103;-76
2022/10/17 14:10:32;;;;;;;2.30;0.80;;;19.30;94.60;;;;;;5074251;28;20077;-74
2022/10/17 14:13:00;;;;;;;3.63;0.98;;;19.30;95.10;;;;;;5093900;28;20108;-75
2022/10/17 14:15:28;;;;;;;2.90;0.88;;;19.30;94.70;;;;;;5087130;28;20555;-75
2022/10/17 14:18:19;;;;;;;2.58;0.73;;;19.30;94.70;;;;;;5077321;28;20052;-75
2022/10/17 14:20:47;;;;;;;3.03;0.93;;;19.30;95.20;;;;;;5061148;28;20724;-76
2022/10/17 14:23:41;;;;;;;2.15;0.90;;;19.30;94.60;;;;;;5081636;28;20043;-76
2022/10/17 14:26:14;;;;;;;1.92;1.00;;;19.30;95.00;;;;;;5078231;28;20051;-75
2022/10/17 14:28:42;;;;;;;1.98;0.80;;;19.30;94.50;;;;;;5083894;28;20507;-76
2022/10/17 14:31:12;;;;;;;2.17;0.80;;;19.30;94.60;;;;;;5075477;28;20020;-75
2022/10/17 14:33:43;;;;;;;3.25;1.00;;;19.30;94.40;;;;;;5076886;28;20017;-76
2022/10/17 14:36:09;;;;;;;2.35;0.90;;;19.30;94.30;;;;;;5075580;28;20111;-76
2022/10/17 14:38:35;;;;;;;2.78;0.88;;;19.30;94.30;;;;;;5071745;28;20067;-76
2022/10/17 14:41:21;;;;;;;4.30;1.05;;;19.30;94.20;;;;;;5074649;28;20055;-75
2022/10/17 14:43:55;;;;;;;3.75;1.42;;;19.30;94.60;;;;;;5075680;28;20043;-75
2022/10/17 14:46:21;;;;;;;2.40;1.33;;;19.20;94.50;;;;;;5074552;28;20024;-76
2022/10/17 14:48:56;;;;;;;2.30;0.90;;;19.20;94.40;;;;;;5076814;28;20024;-77
2022/10/17 14:51:21;;;;;;;2.85;1.00;;;19.20;94.60;;;;;;5077065;28;20040;-76
2022/10/17 14:54:01;;;;;;;2.15;0.90;;;19.20;94.30;;;;;;5076690;28;20025;-76
2022/10/17 14:56:39;;;;;;;1.85;0.80;;;19.20;94.80;;;;;;5076464;28;20017;-75
2022/10/17 14:59:04;;;;;;;2.20;0.90;;;19.20;94.60;;;;;;5076776;28;20163;-76
2022/10/17 15:01:31;;;;;;;3.13;1.00;;;19.20;94.40;;;;;;5076488;28;20052;-79
2022/10/17 15:03:57;;;;;;;1.48;0.70;;;19.20;94.50;;;;;;5077115;28;20048;-76
2022/10/17 15:06:27;;;;;;;2.97;0.63;;;19.20;94.40;;;;;;5076767;28;20017;-77
2022/10/17 15:08:52;;;;;;;2.13;0.60;;;19.10;94.60;;;;;;5076131;28;20032;-76
2022/10/17 15:11:18;;;;;;;2.72;1.10;;;19.10;94.80;;;;;;5080670;28;20012;-76
2022/10/17 15:13:43;;;;;;;4.20;0.80;;;19.10;94.80;;;;;;5076212;28;20511;-75
2022/10/17 15:16:30;;;;;;;2.50;0.90;;;19.10;94.70;;;;;;5076694;28;20027;-76
2022/10/17 15:18:56;;;;;;;2.90;0.80;;;19.10;95.10;;;;;;5076049;28;20093;-75
2022/10/17 15:21:23;;;;;;;1.95;0.80;;;19.10;95.00;;;;;;5075047;28;20116;-74
2022/10/17 15:23:49;;;;;;;1.75;0.70;;;19.10;95.20;;;;;;5074972;28;20020;-75
2022/10/17 15:26:18;;;;;;;3.20;0.90;;;19.10;95.30;;;;;;5076267;28;20890;-75
2022/10/17 15:28:44;;;;;;;2.13;0.95;;;19.10;95.30;;;;;;5076192;28;20477;-79
2022/10/17 15:31:12;;;;;;;4.68;1.10;;;19.10;95.50;;;;;;5075858;28;20080;-75
2022/10/17 15:33:37;;;;;;;1.88;0.90;;;19.00;95.40;;;;;;5075076;28;20078;-75
2022/10/17 15:36:03;;;;;;;4.60;1.55;;;19.00;95.50;;;;;;5076335;28;20024;-77
2022/10/17 15:38:29;;;;;;;1.45;1.00;;;19.00;95.50;;;;;;5075062;28;20031;-75
2022/10/17 15:40:55;;;;;;;3.95;0.82;;;19.00;95.50;;;;;;5076619;28;20099;-76
2022/10/17 15:43:20;;;;;;;2.58;0.85;;;18.90;95.40;;;;;;5080671;28;20547;-75
2022/10/17 15:45:46;;;;;;;3.55;1.30;;;18.90;95.50;;;;;;5075745;28;20029;-75
2022/10/17 15:48:21;;;;;;;2.70;1.08;;;18.90;95.60;;;;;;5076784;28;20025;-75
2022/10/17 15:50:46;;;;;;;4.75;1.05;;;18.90;95.60;;;;;;5076016;28;20025;-76
2022/10/17 15:53:12;;;;;;;4.40;1.17;;;18.90;95.70;;;;;;5074718;28;21632;-76
2022/10/17 15:55:37;;;;;;;1.77;1.00;;;18.90;95.80;;;;;;5075833;28;20070;-76
2022/10/17 15:58:03;;;;;;;1.65;0.90;;;18.90;95.80;;;;;;5075246;28;20039;-76
2022/10/17 16:00:29;;;;;;;2.25;0.98;;;18.90;95.80;;;;;;5084624;28;20519;-75
2022/10/17 16:02:54;;;;;;;3.83;1.10;;;18.90;95.90;;;;;;5086767;28;20582;-75
2022/10/17 16:05:24;;;;;;;2.17;1.00;;;19.00;95.70;;;;;;5085209;28;20025;-74
2022/10/17 16:07:50;;;;;;;3.50;1.20;;;18.90;95.70;;;;;;5075104;28;20035;-71
2022/10/17 16:10:16;;;;;;;2.90;0.90;;;18.90;95.80;;;;;;5074435;28;20608;-73
2022/10/17 16:12:42;;;;;;;2.10;1.08;;;18.90;95.90;;;;;;5074051;28;20104;-76
2022/10/17 16:15:28;;;;;;;2.65;1.13;;;18.90;95.90;;;;;;5078436;28;21518;-75
2022/10/17 16:17:55;;;;;;;2.70;1.00;;;18.80;95.80;;;;;;5084132;28;20044;-75
2022/10/17 16:20:22;;;;;;;2.08;0.80;;;18.80;96.50;;;;;;5080901;28;20020;-73
2022/10/17 16:22:48;;;;;;;2.28;0.90;;;18.80;96.10;;;;;;5080426;28;20043;-73
2022/10/17 16:25:22;;;;;;;2.40;0.98;;;18.80;96.30;;;;;;5079804;28;20024;-75
2022/10/17 16:27:50;;;;;;;2.35;0.93;;;18.80;96.30;;;;;;5079512;28;20049;-74
2022/10/17 16:30:16;;;;;;;1.40;0.90;;;18.80;96.20;;;;;;5080356;28;20020;-75
2022/10/17 16:32:42;;;;;;;2.00;0.90;;;18.90;96.30;;;;;;5087740;28;20024;-74
2022/10/17 16:35:10;;;;;;;2.00;1.20;;;18.90;96.30;;;;;;5079176;28;20024;-75
2022/10/17 16:37:36;;;;;;;2.50;0.85;;;18.80;96.40;;;;;;5079788;28;20020;-75
2022/10/17 16:40:03;;;;;;;3.10;0.90;;;18.80;96.30;;;;;;5079428;28;20016;-74
2022/10/17 16:42:28;;;;;;;8.50;5.47;;;18.80;96.40;;;;;;5079472;28;20027;-74
2022/10/17 16:44:54;;;;;;;14.52;10.25;;;18.80;96.50;;;;;;5078953;28;20040;-74
2022/10/17 16:47:20;;;;;;;9.18;8.05;;;18.80;96.60;;;;;;5077443;28;20028;-74
2022/10/17 16:49:45;;;;;;;8.52;5.88;;;18.70;96.60;;;;;;5079208;28;20032;-74
2022/10/17 16:52:11;;;;;;;4.38;2.67;;;18.70;96.60;;;;;;5078564;28;20025;-74
2022/10/17 16:54:37;;;;;;;2.65;2.13;;;18.70;96.70;;;;;;5078125;28;20028;-75
2022/10/17 16:57:03;;;;;;;2.75;1.60;;;18.70;96.70;;;;;;5079562;28;20111;-73
2022/10/17 16:59:29;;;;;;;3.60;1.50;;;18.70;96.70;;;;;;5074863;28;20016;-72
2022/10/17 17:01:54;;;;;;;3.67;1.45;;;18.70;96.70;;;;;;5089702;28;20036;-73
2022/10/17 17:04:21;;;;;;;3.33;1.23;;;18.70;96.90;;;;;;5084848;28;20579;-73
2022/10/17 17:06:47;;;;;;;2.78;1.10;;;18.60;96.80;;;;;;5080923;28;20090;-72
2022/10/17 17:09:13;;;;;;;1.73;1.10;;;18.60;96.80;;;;;;5086282;28;20028;-74
2022/10/17 17:11:38;;;;;;;3.92;1.30;;;18.60;96.80;;;;;;5087137;28;20032;-74
2022/10/17 17:14:05;;;;;;;2.38;1.20;;;18.50;96.80;;;;;;5094482;28;20042;-75
2022/10/17 17:16:32;;;;;;;3.95;1.27;;;18.50;96.90;;;;;;5089572;28;20027;-74
2022/10/17 17:19:04;;;;;;;3.85;1.48;;;18.60;97.10;;;;;;5082484;28;20020;-74
2022/10/17 17:21:31;;;;;;;1.70;1.20;;;18.50;96.90;;;;;;5078319;28;20039;-72
2022/10/17 17:23:58;;;;;;;2.55;1.17;;;18.50;97.00;;;;;;5072486;28;20024;-73
2022/10/17 17:26:27;;;;;;;2.55;1.40;;;18.40;97.00;;;;;;5081369;28;20202;-73
2022/10/17 17:28:53;;;;;;;3.67;1.50;;;18.40;97.00;;;;;;5078539;28;20036;-71
2022/10/17 17:31:28;;;;;;;1.75;1.25;;;18.40;97.10;;;;;;5084075;28;20020;-71
2022/10/17 17:33:54;;;;;;;3.25;1.27;;;18.40;97.00;;;;;;5077869;28;20028;-71
2022/10/17 17:36:22;;;;;;;2.10;1.33;;;18.40;97.00;;;;;;5072888;28;20028;-75
2022/10/17 17:38:49;;;;;;;2.47;1.20;;;18.40;97.10;;;;;;5072872;28;20044;-76
2022/10/17 17:41:17;;;;;;;5.07;1.67;;;18.30;97.20;;;;;;5075204;28;20413;-75
2022/10/17 17:43:44;;;;;;;2.15;1.30;;;18.40;97.10;;;;;;5077468;28;20024;-75
2022/10/17 17:46:11;;;;;;;2.88;1.35;;;18.40;97.20;;;;;;5074907;28;20023;-76
2022/10/17 17:48:41;;;;;;;2.13;1.30;;;18.40;97.40;;;;;;5071778;28;20086;-75
2022/10/17 17:51:09;;;;;;;2.00;1.23;;;18.40;97.30;;;;;;5071032;28;20032;-77
2022/10/17 17:53:36;;;;;;;3.85;1.70;;;18.40;97.10;;;;;;5084606;28;20023;-76
2022/10/17 17:56:15;;;;;;;2.55;1.40;;;18.40;97.10;;;;;;5074967;28;20052;-76
2022/10/17 17:58:44;;;;;;;2.95;1.40;;;18.40;97.20;;;;;;5079084;28;20096;-76
2022/10/17 18:01:20;;;;;;;3.10;1.25;;;18.30;97.30;;;;;;5078519;28;20124;-76
2022/10/17 18:03:47;;;;;;;1.83;1.23;;;18.30;97.30;;;;;;5079379;28;20542;-75
2022/10/17 18:06:13;;;;;;;4.63;1.27;;;18.30;97.20;;;;;;5078957;28;20021;-76
2022/10/17 18:08:44;;;;;;;5.57;1.38;;;18.30;97.40;;;;;;5079718;28;20063;-82
2022/10/17 18:11:13;;;;;;;4.93;1.40;;;18.20;97.50;;;;;;5075560;28;20017;-81
2022/10/17 18:13:39;;;;;;;3.45;1.90;;;18.30;97.70;;;;;;5076505;28;20063;-85
2022/10/17 18:16:12;;;;;;;4.00;1.60;;;18.30;97.70;;;;;;5076424;28;20462;-84
2022/10/17 18:18:41;;;;;;;;;;;18.30;97.40;;;;;;5075131;28;20036;-85
2022/10/17 18:21:08;;;;;;;3.83;1.67;;;18.30;97.10;;;;;;5067294;28;20388;-84
2022/10/17 18:23:39;;;;;;;4.70;3.05;;;18.30;97.40;;;;;;5071037;28;20029;-84
2022/10/17 18:26:05;;;;;;;6.65;3.00;;;18.30;97.50;;;;;;5077621;28;20045;-85
2022/10/17 18:28:35;;;;;;;3.97;2.50;;;18.30;97.60;;;;;;5078099;28;20013;-84
2022/10/17 18:31:08;;;;;;;4.65;2.20;;;18.20;97.60;;;;;;5069523;28;20078;-84
2022/10/17 18:33:34;;;;;;;;;;;18.20;97.70;;;;;;5077081;28;20458;-84
2022/10/17 18:36:09;;;;;;;3.08;1.83;;;18.20;97.40;;;;;;5076101;28;19909;-84
2022/10/17 18:38:35;;;;;;;5.78;2.20;;;18.20;97.70;;;;;;5067953;28;20056;-85
2022/10/17 18:41:02;;;;;;;6.40;2.67;;;18.20;97.80;;;;;;5069266;28;20036;-84
2022/10/17 18:43:28;;;;;;;13.68;5.88;;;18.20;97.80;;;;;;5061907;28;20057;-84
2022/10/17 18:46:00;;;;;;;8.50;4.03;;;18.20;97.90;;;;;;5067235;28;20035;-86
2022/10/17 18:48:26;;;;;;;4.88;3.40;;;18.20;97.90;;;;;;5060656;28;20024;-86
2022/10/17 18:50:51;;;;;;;4.75;2.72;;;18.20;98.00;;;;;;5061619;28;20492;-87
2022/10/17 18:53:17;;;;;;;4.07;2.20;;;18.30;98.00;;;;;;5068739;28;20024;-85
2022/10/17 18:55:43;;;;;;;5.15;2.15;;;18.30;97.80;;;;;;5065406;28;20082;-87
2022/10/17 18:58:08;;;;;;;4.45;2.28;;;18.30;97.80;;;;;;5070967;28;20456;-84
2022/10/17 19:00:35;;;;;;;4.20;1.90;;;18.30;97.90;;;;;;5066996;28;20032;-83
2022/10/17 19:03:03;;;;;;;3.20;1.77;;;18.30;98.00;;;;;;5068340;28;20025;-80
2022/10/17 19:05:28;;;;;;;2.95;1.58;;;18.30;97.90;;;;;;5074322;28;20115;-83
2022/10/17 19:07:54;;;;;;;3.28;1.75;;;18.30;98.00;;;;;;5077417;28;20068;-86
2022/10/17 19:10:20;;;;;;;3.47;1.83;;;18.30;97.80;;;;;;5061499;28;20377;-82
2022/10/17 19:12:45;;;;;;;5.40;2.05;;;18.30;98.00;;;;;;5069821;28;20052;-89
2022/10/17 19:15:20;;;;;;;3.67;2.15;;;18.30;98.10;;;;;;5069160;28;20071;-87
2022/10/17 19:17:48;;;;;;;3.30;1.90;;;18.30;97.90;;;;;;5082870;28;20035;-83
2022/10/17 19:20:17;;;;;;;5.03;2.35;;;18.30;97.90;;;;;;5075734;28;20101;-89
2022/10/17 19:22:43;;;;;;;5.43;2.40;;;18.30;97.80;;;;;;5069593;28;20028;-78
2022/10/17 19:25:35;;;;;;;5.10;2.08;;;18.30;97.90;;;;;;5076448;28;20036;-88
2022/10/17 19:28:06;;;;;;;4.97;2.00;;;18.20;97.80;;;;;;5072724;28;20163;-86
2022/10/17 19:30:32;;;;;;;3.85;2.25;;;18.20;97.90;;;;;;5078700;28;20021;-82
2022/10/17 19:32:58;;;;;;;6.43;3.10;;;18.20;97.90;;;;;;5071307;28;20040;-84
2022/10/17 19:35:23;;;;;;;6.78;3.00;;;18.20;98.40;;;;;;5069998;28;20028;-81
2022/10/17 19:37:52;;;;;;;7.15;3.22;;;18.20;98.10;;;;;;5074282;28;20044;-78
2022/10/17 19:40:18;;;;;;;5.68;3.17;;;18.20;98.10;;;;;;5075583;28;20017;-78
2022/10/17 19:42:43;;;;;;;7.32;3.35;;;18.20;98.00;;;;;;5072754;28;20036;-78
2022/10/17 19:45:09;;;;;;;6.65;3.33;;;18.20;98.10;;;;;;5075188;28;20020;-81
2022/10/17 19:47:35;;;;;;;5.60;3.40;;;18.20;98.10;;;;;;5075205;28;20062;-81
2022/10/17 19:50:03;;;;;;;7.00;3.70;;;18.20;98.00;;;;;;5078835;28;20074;-88
2022/10/17 19:52:29;;;;;;;6.80;3.40;;;18.20;98.00;;;;;;5077205;28;20028;-83
2022/10/17 19:54:54;;;;;;;5.28;3.63;;;18.10;97.90;;;;;;5078513;28;20028;-81
2022/10/17 19:57:20;;;;;;;7.78;4.03;;;18.10;98.00;;;;;;5075613;28;20032;-84
2022/10/17 19:59:46;;;;;;;5.30;3.85;;;18.10;98.00;;;;;;5076776;28;20519;-88
2022/10/17 20:02:12;;;;;;;6.50;3.85;;;18.10;97.90;;;;;;5078171;28;20032;-84
2022/10/17 20:04:38;;;;;;;7.10;3.95;;;18.10;98.00;;;;;;5079174;28;20020;-88
2022/10/17 20:07:04;;;;;;;6.68;4.70;;;18.10;98.20;;;;;;5066336;28;20029;-89
2022/10/17 20:09:30;;;;;;;8.00;4.85;;;18.10;98.20;;;;;;5079877;28;20029;-91
2022/10/17 20:11:55;;;;;;;9.07;4.35;;;18.10;98.10;;;;;;5078447;28;20074;-87
2022/10/17 20:14:21;;;;;;;7.65;4.97;;;18.10;98.10;;;;;;5075028;28;20024;-88
2022/10/17 20:16:51;;;;;;;8.18;4.93;;;18.10;98.00;;;;;;5077938;28;20028;-87
2022/10/17 20:19:17;;;;;;;8.05;4.47;;;18.10;98.10;;;;;;5079859;28;20131;-88
2022/10/17 20:21:43;;;;;;;7.05;4.50;;;18.10;98.00;;;;;;5065868;28;20040;-84
2022/10/17 20:24:14;;;;;;;9.25;4.45;;;18.00;98.10;;;;;;5069463;28;20028;-82
2022/10/17 20:26:41;;;;;;;7.95;4.57;;;18.00;98.10;;;;;;5072112;28;20057;-82
2022/10/17 20:29:16;;;;;;;7.30;4.40;;;18.00;98.10;;;;;;5076129;28;20024;-81
2022/10/17 20:31:43;;;;;;;7.43;4.53;;;18.00;98.20;;;;;;5069080;28;20029;-78
2022/10/17 20:34:12;;;;;;;6.18;4.32;;;18.00;98.10;;;;;;5071259;28;20031;-78
2022/10/17 20:36:38;;;;;;;7.45;4.40;;;18.00;98.10;;;;;;5074437;28;20032;-78
2022/10/17 20:39:04;;;;;;;8.60;4.43;;;18.00;98.10;;;;;;5072505;28;20028;-79
2022/10/17 20:41:30;;;;;;;7.47;4.68;;;17.90;98.10;;;;;;5061100;28;20036;-79
2022/10/17 20:43:56;;;;;;;6.47;4.20;;;17.90;98.20;;;;;;5068104;28;20029;-80
2022/10/17 20:46:22;;;;;;;7.30;4.28;;;17.90;98.30;;;;;;5081249;28;20056;-78
2022/10/17 20:48:52;;;;;;;8.43;4.65;;;17.90;98.40;;;;;;5068761;28;20017;-80
2022/10/17 20:51:19;;;;;;;8.43;4.43;;;17.90;98.30;;;;;;5070052;28;20033;-81
2022/10/17 20:53:46;;;;;;;9.23;4.82;;;17.90;98.50;;;;;;5076337;28;20035;-82
2022/10/17 20:56:21;;;;;;;6.65;4.00;;;17.90;98.40;;;;;;5072007;28;20021;-82
2022/10/17 20:58:51;;;;;;;7.55;4.25;;;17.90;98.20;;;;;;5069228;28;20025;-80
2022/10/17 21:01:17;;;;;;;5.80;3.78;;;17.90;98.20;;;;;;5078276;28;20032;-82
2022/10/17 21:03:42;;;;;;;6.60;4.38;;;17.90;98.40;;;;;;5072231;28;20032;-81
2022/10/17 21:06:09;;;;;;;6.80;3.78;;;17.90;98.30;;;;;;5063764;28;20125;-82
2022/10/17 21:08:35;;;;;;;6.60;4.28;;;17.80;98.20;;;;;;5070710;28;20420;-80
2022/10/17 21:11:27;;;;;;;7.07;4.38;;;17.80;98.30;;;;;;5070465;28;20031;-78
2022/10/17 21:14:05;;;;;;;8.27;4.28;;;17.80;98.10;;;;;;5072425;28;20118;-79
2022/10/17 21:16:32;;;;;;;6.28;4.75;;;17.80;98.30;;;;;;5078437;28;20040;-79
2022/10/17 21:18:58;;;;;;;7.80;4.47;;;17.70;98.30;;;;;;5077592;28;20068;-78
2022/10/17 21:21:26;;;;;;;7.75;4.20;;;17.70;98.50;;;;;;5071765;28;20033;-81
2022/10/17 21:24:12;;;;;;;7.07;4.15;;;17.70;98.50;;;;;;5066759;28;20036;-83
2022/10/17 21:26:39;;;;;;;7.75;4.32;;;17.70;98.50;;;;;;5060323;28;20041;-87
2022/10/17 21:29:08;;;;;;;6.88;3.97;;;17.70;98.30;;;;;;5060886;28;20108;-85
2022/10/17 21:31:39;;;;;;;5.97;4.43;;;17.60;98.40;;;;;;5069792;28;20021;-84
2022/10/17 21:34:07;;;;;;;7.80;4.65;;;17.60;98.50;;;;;;5068343;28;20066;-85
2022/10/17 21:36:33;;;;;;;8.02;4.57;;;17.60;98.60;;;;;;5079464;28;20024;-80
2022/10/17 21:39:21;;;;;;;8.32;4.78;;;17.60;98.60;;;;;;5078954;28;20103;-91
2022/10/17 21:41:47;;;;;;;9.20;4.50;;;17.60;99.00;;;;;;5073321;28;20036;-82
2022/10/17 21:44:15;;;;;;;6.38;4.60;;;17.60;98.70;;;;;;5076119;28;20028;-83
2022/10/17 21:46:42;;;;;;;5.90;4.53;;;17.60;98.80;;;;;;5068844;28;20471;-84
2022/10/17 21:49:10;;;;;;;7.65;4.68;;;17.60;98.80;;;;;;5073320;28;20016;-85
2022/10/17 21:51:36;;;;;;;5.82;3.97;;;17.60;98.90;;;;;;5062317;28;20031;-84
2022/10/17 21:54:02;;;;;;;7.03;4.72;;;17.70;98.90;;;;;;5077532;28;20052;-89
2022/10/17 21:56:32;;;;;;;6.32;4.13;;;17.70;98.80;;;;;;5071993;28;20087;-85
2022/10/17 21:58:59;;;;;;;7.68;4.57;;;17.70;98.80;;;;;;5072121;28;20039;-84
2022/10/17 22:01:27;;;;;;;7.22;4.35;;;17.80;98.90;;;;;;5080413;28;20025;-85
2022/10/17 22:03:55;;;;;;;8.88;4.50;;;17.70;98.80;;;;;;5064866;28;20016;-86
2022/10/17 22:06:25;;;;;;;7.53;4.90;;;17.80;98.90;;;;;;5070668;28;20035;-85
2022/10/17 22:08:52;;;;;;;6.32;3.47;;;17.80;98.80;;;;;;5062625;28;20151;-85
2022/10/17 22:11:21;;;;;;;6.93;4.20;;;17.80;98.90;;;;;;5077805;28;20029;-85
2022/10/17 22:13:47;;;;;;;7.18;3.70;;;17.80;98.70;;;;;;5058240;28;20029;-86
2022/10/17 22:16:15;;;;;;;7.03;4.43;;;17.80;98.90;;;;;;5070367;28;20091;-86
2022/10/17 22:18:41;;;;;;;7.07;4.00;;;17.80;98.80;;;;;;5069496;28;20028;-83
2022/10/17 22:21:13;;;;;;;9.50;4.20;;;17.80;98.70;;;;;;5074388;28;20433;-83
2022/10/17 22:23:43;;;;;;;6.82;4.50;;;17.80;98.70;;;;;;5075266;28;20047;-83
2022/10/17 22:26:10;;;;;;;7.53;3.90;;;17.70;98.70;;;;;;5074311;28;20040;-83
2022/10/17 22:28:36;;;;;;;5.47;3.95;;;17.70;98.70;;;;;;5074429;28;20049;-83
2022/10/17 22:31:03;;;;;;;6.97;4.47;;;17.60;98.70;;;;;;5072755;28;20481;-90
2022/10/17 22:33:31;;;;;;;6.72;4.07;;;17.60;98.90;;;;;;5075972;28;20020;-87
2022/10/17 22:35:57;;;;;;;7.97;4.25;;;17.60;99.10;;;;;;5076089;28;20036;-85
2022/10/17 22:38:23;;;;;;;7.63;4.53;;;17.70;99.10;;;;;;5064780;28;20024;-85
2022/10/17 22:40:48;;;;;;;6.85;4.15;;;17.70;99.10;;;;;;5072988;28;20021;-86
2022/10/17 22:43:14;;;;;;;7.10;4.05;;;17.70;99.00;;;;;;5064208;28;20047;-84
2022/10/17 22:45:40;;;;;;;8.85;4.85;;;17.70;99.00;;;;;;5077696;28;20028;-85
2022/10/17 22:48:06;;;;;;;6.43;4.10;;;17.70;99.10;;;;;;5075505;28;20036;-87
2022/10/17 22:50:32;;;;;;;8.18;4.38;;;17.80;99.10;;;;;;5071938;28;20027;-86
2022/10/17 22:52:58;;;;;;;7.28;4.15;;;17.80;99.10;;;;;;5066160;28;20037;-86
2022/10/17 22:55:23;;;;;;;9.13;4.60;;;17.80;99.10;;;;;;5064428;28;20387;-86
2022/10/17 22:57:49;;;;;;;8.35;4.50;;;17.70;99.00;;;;;;5064826;28;20104;-87
2022/10/17 23:00:16;;;;;;;7.47;4.43;;;17.70;99.00;;;;;;5066790;28;20035;-86
2022/10/17 23:02:42;;;;;;;8.98;4.50;;;17.80;99.10;;;;;;5069724;28;20068;-86
2022/10/17 23:05:09;;;;;;;8.80;4.45;;;17.80;99.10;;;;;;5066155;28;20024;-86
2022/10/17 23:07:35;;;;;;;7.88;4.18;;;17.70;99.00;;;;;;5076847;28;20040;-86
2022/10/17 23:10:00;;;;;;;8.95;4.22;;;17.80;99.00;;;;;;5064191;28;20473;-86
2022/10/17 23:12:26;;;;;;;6.97;4.50;;;17.80;99.00;;;;;;5064076;28;20112;-86
2022/10/17 23:14:52;;;;;;;7.32;4.30;;;17.80;99.10;;;;;;5062224;28;20020;-85
2022/10/17 23:17:18;;;;;;;6.75;4.25;;;17.80;99.10;;;;;;5063719;28;20037;-85
2022/10/17 23:19:43;;;;;;;7.45;4.15;;;17.80;99.10;;;;;;5075723;28;20024;-85
2022/10/17 23:22:09;;;;;;;8.23;4.60;;;17.70;99.00;;;;;;5069338;28;20029;-85
2022/10/17 23:24:35;;;;;;;6.93;4.28;;;17.70;99.00;;;;;;5072376;28;20029;-84
2022/10/17 23:27:01;;;;;;;7.93;4.07;;;17.70;99.00;;;;;;5075710;28;20048;-85
2022/10/17 23:29:34;;;;;;;6.70;4.18;;;17.70;99.00;;;;;;5067315;28;20436;-85
2022/10/17 23:32:00;;;;;;;6.32;4.22;;;17.70;99.10;;;;;;5075960;28;20111;-84
2022/10/17 23:34:27;;;;;;;7.25;3.90;;;17.70;99.10;;;;;;5068254;28;20404;-84
2022/10/17 23:36:53;;;;;;;7.00;4.25;;;17.70;99.10;;;;;;5075384;28;20500;-84
2022/10/17 23:39:19;;;;;;;9.15;4.38;;;17.70;99.10;;;;;;5075413;28;20068;-84
2022/10/17 23:41:45;;;;;;;7.68;4.45;;;17.70;99.10;;;;;;5069577;28;20033;-85
2022/10/17 23:44:11;;;;;;;7.18;4.10;;;17.70;99.10;;;;;;5068490;28;20037;-83
2022/10/17 23:46:37;;;;;;;8.20;4.50;;;17.70;99.20;;;;;;5076000;28;20519;-85
2022/10/17 23:49:04;;;;;;;7.63;4.13;;;17.70;99.10;;;;;;5067421;28;20025;-84
2022/10/17 23:51:29;;;;;;;8.75;4.00;;;17.70;99.00;;;;;;5072659;28;20028;-85
2022/10/17 23:53:55;;;;;;;8.15;4.25;;;17.70;98.90;;;;;;5060130;28;20037;-85
2022/10/17 23:56:21;;;;;;;7.70;3.83;;;17.70;99.00;;;;;;5074715;28;20025;-84
2022/10/17 23:58:46;;;;;;;7.47;4.55;;;17.60;99.00;;;;;;5064638;28;20060;-84
